Status Flugplatz

Der Flugplatz ist offen
PPR Regelung ! PJE !!!

123.15 MHz
RWY 05/23

flüger beizli - Öffnungszeiten
Freitag ab 16:00
Samstag +Sonntag ab 11:00
Bei schönem Wetter öffnen wir früher! Tel.: 079 234 07 74

Herzlich willkommen auf der Homepage des Flugplatz Biel-Kappelen

Wir freuen uns über Ihren Besuch auf unserem schönen Flugplatz im Berner Seeland. Ob zu Fuss, per Velo, Motorrad, Auto oder Flugzeug Sie sind uns jederzeit herzlich willkommen. 


 

 

Wetter Kappelen

 


 

[source: ADDS]
METAR
LSZG 051820Z AUTO VRB01KT 0200 FZFG VV002 M01/M01 Q1028 =
TAF
TAF AMD LSZG 051803Z 0518/0524 VRB03KT 0200 FZFG VV002 PROB30 0518/0524 VV001 =
SR / SS: 07:03 / 15:42 UTC ( 2016-12-05)

 


 

Besucherzähler

HeuteHeute36
Seit BeginnSeit Beginn76921
Guests 1

Flugplatz Biel-Kappelen LSZP - 123.15MHz - 032 384 46 84

Email: Diese E-Mail-Adresse ist vor Spambots geschützt! Zur Anzeige muss JavaScript eingeschaltet sein!
www.lszp.ch
2016 © by mb

Zum Anfang